sensor_id;sensor_type;location;lat;lon;timestamp;pressure;altitude;pressure_sealevel;temperature;humidity
4981;BME280;2507;50.392;7.482;2022-10-16T00:01:12;100435.22;;;16.55;88.32
4981;BME280;2507;50.392;7.482;2022-10-16T00:03:39;100429.91;;;16.55;89.02
4981;BME280;2507;50.392;7.482;2022-10-16T00:06:06;100435.53;;;16.52;89.67
4981;BME280;2507;50.392;7.482;2022-10-16T00:08:31;100430.59;;;16.57;89.87
4981;BME280;2507;50.392;7.482;2022-10-16T00:11:03;100432.25;;;16.58;90.36
4981;BME280;2507;50.392;7.482;2022-10-16T00:13:29;100425.31;;;16.57;90.72
4981;BME280;2507;50.392;7.482;2022-10-16T00:15:56;100428.03;;;16.65;90.78
4981;BME280;2507;50.392;7.482;2022-10-16T00:18:21;100430.28;;;16.60;91.70
4981;BME280;2507;50.392;7.482;2022-10-16T00:20:47;100438.03;;;16.71;91.30
4981;BME280;2507;50.392;7.482;2022-10-16T00:23:12;100427.94;;;16.75;91.04
4981;BME280;2507;50.392;7.482;2022-10-16T00:25:37;100429.69;;;16.84;90.76
4981;BME280;2507;50.392;7.482;2022-10-16T00:28:02;100431.88;;;16.88;90.85
4981;BME280;2507;50.392;7.482;2022-10-16T00:30:28;100438.56;;;16.92;89.86
4981;BME280;2507;50.392;7.482;2022-10-16T00:32:54;100447.41;;;17.01;89.94
4981;BME280;2507;50.392;7.482;2022-10-16T00:35:19;100447.72;;;16.98;89.62
4981;BME280;2507;50.392;7.482;2022-10-16T00:37:45;100452.03;;;16.99;89.67
4981;BME280;2507;50.392;7.482;2022-10-16T00:40:10;100449.72;;;17.21;88.48
4981;BME280;2507;50.392;7.482;2022-10-16T00:42:36;100444.41;;;17.21;87.39
4981;BME280;2507;50.392;7.482;2022-10-16T00:45:02;100453.34;;;17.20;87.48
4981;BME280;2507;50.392;7.482;2022-10-16T00:47:37;100472.44;;;17.24;87.50
4981;BME280;2507;50.392;7.482;2022-10-16T00:50:09;100484.81;;;17.15;86.54
4981;BME280;2507;50.392;7.482;2022-10-16T00:52:39;100480.44;;;17.06;87.03
4981;BME280;2507;50.392;7.482;2022-10-16T00:55:08;100481.56;;;17.04;86.36
4981;BME280;2507;50.392;7.482;2022-10-16T00:57:34;100456.19;;;17.01;86.74
4981;BME280;2507;50.392;7.482;2022-10-16T00:59:59;100437.47;;;17.03;86.07
4981;BME280;2507;50.392;7.482;2022-10-16T01:02:25;100433.75;;;17.13;85.53
4981;BME280;2507;50.392;7.482;2022-10-16T01:04:52;100436.72;;;17.10;85.60
4981;BME280;2507;50.392;7.482;2022-10-16T01:15:27;100479.50;;;17.15;84.89
4981;BME280;2507;50.392;7.482;2022-10-16T01:18:08;100482.00;;;17.17;84.88
4981;BME280;2507;50.392;7.482;2022-10-16T01:20:42;100473.34;;;17.15;84.41
4981;BME280;2507;50.392;7.482;2022-10-16T01:31:53;100469.66;;;17.08;84.56
4981;BME280;2507;50.392;7.482;2022-10-16T01:34:25;100452.19;;;16.97;85.06
4981;BME280;2507;50.392;7.482;2022-10-16T01:36:57;100454.44;;;17.10;84.72
4981;BME280;2507;50.392;7.482;2022-10-16T01:39:29;100466.09;;;17.17;84.03
4981;BME280;2507;50.392;7.482;2022-10-16T01:42:13;100469.94;;;17.22;83.55
4981;BME280;2507;50.392;7.482;2022-10-16T01:44:41;100475.00;;;17.33;83.06
4981;BME280;2507;50.392;7.482;2022-10-16T01:47:09;100457.88;;;17.28;83.06
4981;BME280;2507;50.392;7.482;2022-10-16T01:49:38;100454.03;;;17.22;83.47
4981;BME280;2507;50.392;7.482;2022-10-16T01:52:07;100464.63;;;17.22;83.28
4981;BME280;2507;50.392;7.482;2022-10-16T01:54:36;100459.66;;;17.19;83.28
4981;BME280;2507;50.392;7.482;2022-10-16T01:57:05;100466.31;;;17.23;83.06
4981;BME280;2507;50.392;7.482;2022-10-16T01:59:33;100471.31;;;17.26;82.70
4981;BME280;2507;50.392;7.482;2022-10-16T02:02:06;100480.91;;;17.45;81.67
4981;BME280;2507;50.392;7.482;2022-10-16T02:04:35;100492.44;;;17.54;80.94
4981;BME280;2507;50.392;7.482;2022-10-16T02:07:02;100489.59;;;17.55;80.65
4981;BME280;2507;50.392;7.482;2022-10-16T02:09:27;100496.09;;;17.53;80.87
4981;BME280;2507;50.392;7.482;2022-10-16T02:11:54;100494.75;;;17.57;80.66
4981;BME280;2507;50.392;7.482;2022-10-16T02:14:22;100497.47;;;17.65;80.56
4981;BME280;2507;50.392;7.482;2022-10-16T02:16:50;100498.94;;;17.85;79.28
4981;BME280;2507;50.392;7.482;2022-10-16T02:19:17;100496.91;;;17.79;79.51
4981;BME280;2507;50.392;7.482;2022-10-16T02:22:00;100496.53;;;17.74;79.78
4981;BME280;2507;50.392;7.482;2022-10-16T02:24:39;100507.47;;;17.71;79.69
4981;BME280;2507;50.392;7.482;2022-10-16T02:27:14;100512.53;;;17.56;80.01
4981;BME280;2507;50.392;7.482;2022-10-16T02:29:46;100505.69;;;17.54;79.75
4981;BME280;2507;50.392;7.482;2022-10-16T02:32:18;100500.91;;;17.57;79.79
4981;BME280;2507;50.392;7.482;2022-10-16T02:34:45;100483.88;;;17.68;78.66
4981;BME280;2507;50.392;7.482;2022-10-16T02:37:12;100482.06;;;17.68;78.74
4981;BME280;2507;50.392;7.482;2022-10-16T02:39:38;100482.00;;;17.60;79.16
4981;BME280;2507;50.392;7.482;2022-10-16T02:42:10;100494.66;;;17.66;78.92
4981;BME280;2507;50.392;7.482;2022-10-16T02:44:35;100492.31;;;17.89;78.39
4981;BME280;2507;50.392;7.482;2022-10-16T02:47:00;100496.97;;;17.95;77.69
4981;BME280;2507;50.392;7.482;2022-10-16T02:49:25;100501.31;;;17.96;77.52
4981;BME280;2507;50.392;7.482;2022-10-16T02:51:51;100476.34;;;17.81;77.69
4981;BME280;2507;50.392;7.482;2022-10-16T02:54:16;100480.25;;;18.02;77.12
4981;BME280;2507;50.392;7.482;2022-10-16T02:56:41;100486.91;;;18.06;76.92
4981;BME280;2507;50.392;7.482;2022-10-16T02:59:06;100477.81;;;18.17;76.45
4981;BME280;2507;50.392;7.482;2022-10-16T03:01:32;100487.44;;;18.10;76.12
4981;BME280;2507;50.392;7.482;2022-10-16T03:03:57;100489.25;;;18.09;76.49
4981;BME280;2507;50.392;7.482;2022-10-16T03:06:22;100480.81;;;18.14;76.28
4981;BME280;2507;50.392;7.482;2022-10-16T03:08:48;100471.03;;;18.14;75.41
4981;BME280;2507;50.392;7.482;2022-10-16T03:11:13;100496.41;;;18.09;75.98
4981;BME280;2507;50.392;7.482;2022-10-16T03:13:39;100489.00;;;17.95;77.36
4981;BME280;2507;50.392;7.482;2022-10-16T03:16:04;100483.47;;;17.80;77.68
4981;BME280;2507;50.392;7.482;2022-10-16T03:18:29;100488.38;;;17.67;78.50
4981;BME280;2507;50.392;7.482;2022-10-16T03:20:54;100503.72;;;17.56;79.73
4981;BME280;2507;50.392;7.482;2022-10-16T03:23:20;100522.91;;;17.50;80.60
4981;BME280;2507;50.392;7.482;2022-10-16T03:25:45;100520.69;;;17.45;81.18
4981;BME280;2507;50.392;7.482;2022-10-16T03:28:10;100516.44;;;17.34;81.62
4981;BME280;2507;50.392;7.482;2022-10-16T03:30:36;100512.81;;;17.35;82.07
4981;BME280;2507;50.392;7.482;2022-10-16T03:33:01;100518.75;;;17.29;82.78
4981;BME280;2507;50.392;7.482;2022-10-16T03:35:26;100525.19;;;17.27;83.04
4981;BME280;2507;50.392;7.482;2022-10-16T03:37:51;100524.19;;;17.28;82.65
4981;BME280;2507;50.392;7.482;2022-10-16T03:40:17;100531.63;;;17.24;82.97
4981;BME280;2507;50.392;7.482;2022-10-16T03:42:43;100540.03;;;17.20;83.01
4981;BME280;2507;50.392;7.482;2022-10-16T03:45:09;100533.97;;;17.27;83.13
4981;BME280;2507;50.392;7.482;2022-10-16T03:47:35;100533.59;;;17.22;83.03
4981;BME280;2507;50.392;7.482;2022-10-16T03:50:00;100529.13;;;17.23;83.26
4981;BME280;2507;50.392;7.482;2022-10-16T03:52:26;100537.63;;;17.26;83.04
4981;BME280;2507;50.392;7.482;2022-10-16T03:54:51;100546.41;;;17.27;83.08
4981;BME280;2507;50.392;7.482;2022-10-16T03:57:17;100550.81;;;17.36;82.57
4981;BME280;2507;50.392;7.482;2022-10-16T03:59:42;100546.94;;;17.30;82.20
4981;BME280;2507;50.392;7.482;2022-10-16T04:02:08;100542.66;;;17.47;81.34
4981;BME280;2507;50.392;7.482;2022-10-16T04:04:33;100550.66;;;17.38;81.05
4981;BME280;2507;50.392;7.482;2022-10-16T04:06:58;100545.09;;;17.31;81.19
4981;BME280;2507;50.392;7.482;2022-10-16T04:09:23;100552.69;;;17.26;81.67
4981;BME280;2507;50.392;7.482;2022-10-16T04:11:49;100550.13;;;17.34;81.06
4981;BME280;2507;50.392;7.482;2022-10-16T04:14:15;100545.56;;;17.44;80.06
4981;BME280;2507;50.392;7.482;2022-10-16T04:16:40;100539.88;;;17.39;78.77
4981;BME280;2507;50.392;7.482;2022-10-16T04:19:05;100540.03;;;17.38;79.43
4981;BME280;2507;50.392;7.482;2022-10-16T04:21:31;100544.66;;;17.35;79.71
4981;BME280;2507;50.392;7.482;2022-10-16T04:23:56;100545.94;;;17.31;78.92
4981;BME280;2507;50.392;7.482;2022-10-16T04:26:21;100548.91;;;17.28;78.88
4981;BME280;2507;50.392;7.482;2022-10-16T04:28:47;100568.25;;;17.21;79.84
4981;BME280;2507;50.392;7.482;2022-10-16T04:31:12;100555.34;;;17.26;78.83
4981;BME280;2507;50.392;7.482;2022-10-16T04:33:37;100536.88;;;17.34;78.40
4981;BME280;2507;50.392;7.482;2022-10-16T04:36:03;100534.56;;;17.39;77.95
4981;BME280;2507;50.392;7.482;2022-10-16T04:38:29;100541.94;;;17.27;78.02
4981;BME280;2507;50.392;7.482;2022-10-16T04:40:54;100549.59;;;17.30;77.76
4981;BME280;2507;50.392;7.482;2022-10-16T04:43:20;100543.16;;;17.15;78.85
4981;BME280;2507;50.392;7.482;2022-10-16T04:45:45;100558.69;;;17.28;78.50
4981;BME280;2507;50.392;7.482;2022-10-16T04:48:11;100566.44;;;17.21;78.47
4981;BME280;2507;50.392;7.482;2022-10-16T04:50:36;100576.50;;;17.18;78.65
4981;BME280;2507;50.392;7.482;2022-10-16T04:53:01;100583.94;;;17.14;78.51
4981;BME280;2507;50.392;7.482;2022-10-16T04:55:27;100568.84;;;17.15;78.55
4981;BME280;2507;50.392;7.482;2022-10-16T04:57:52;100564.34;;;17.33;77.10
4981;BME280;2507;50.392;7.482;2022-10-16T05:00:17;100557.03;;;17.27;77.39
4981;BME280;2507;50.392;7.482;2022-10-16T05:02:43;100573.31;;;17.14;77.41
4981;BME280;2507;50.392;7.482;2022-10-16T05:05:08;100584.22;;;17.11;78.11
4981;BME280;2507;50.392;7.482;2022-10-16T05:07:33;100576.09;;;16.95;79.10
4981;BME280;2507;50.392;7.482;2022-10-16T05:09:59;100592.16;;;17.11;78.30
4981;BME280;2507;50.392;7.482;2022-10-16T05:12:24;100571.84;;;17.20;77.55
4981;BME280;2507;50.392;7.482;2022-10-16T05:14:49;100577.63;;;17.15;77.84
4981;BME280;2507;50.392;7.482;2022-10-16T05:17:14;100572.69;;;17.20;77.27
4981;BME280;2507;50.392;7.482;2022-10-16T05:19:40;100579.22;;;17.26;77.17
4981;BME280;2507;50.392;7.482;2022-10-16T05:22:05;100574.91;;;17.25;77.32
4981;BME280;2507;50.392;7.482;2022-10-16T05:24:30;100574.28;;;17.31;77.51
4981;BME280;2507;50.392;7.482;2022-10-16T05:26:56;100586.78;;;17.38;76.86
4981;BME280;2507;50.392;7.482;2022-10-16T05:29:21;100597.47;;;17.11;77.75
4981;BME280;2507;50.392;7.482;2022-10-16T05:31:50;100585.06;;;17.29;77.13
4981;BME280;2507;50.392;7.482;2022-10-16T05:34:15;100580.13;;;17.34;76.66
4981;BME280;2507;50.392;7.482;2022-10-16T05:36:40;100592.53;;;17.16;76.84
4981;BME280;2507;50.392;7.482;2022-10-16T05:39:05;100598.97;;;16.96;78.59
4981;BME280;2507;50.392;7.482;2022-10-16T05:41:31;100596.78;;;17.09;77.64
4981;BME280;2507;50.392;7.482;2022-10-16T05:43:56;100591.78;;;17.06;78.14
4981;BME280;2507;50.392;7.482;2022-10-16T05:46:22;100594.50;;;16.97;78.64
4981;BME280;2507;50.392;7.482;2022-10-16T05:48:47;100593.28;;;16.91;79.22
4981;BME280;2507;50.392;7.482;2022-10-16T05:51:14;100599.28;;;16.93;79.03
4981;BME280;2507;50.392;7.482;2022-10-16T05:53:40;100603.34;;;16.88;79.37
4981;BME280;2507;50.392;7.482;2022-10-16T05:56:08;100597.25;;;17.05;78.98
4981;BME280;2507;50.392;7.482;2022-10-16T05:58:36;100596.25;;;17.06;78.81
4981;BME280;2507;50.392;7.482;2022-10-16T06:01:03;100607.97;;;17.30;77.40
4981;BME280;2507;50.392;7.482;2022-10-16T06:03:28;100609.09;;;17.28;77.07
4981;BME280;2507;50.392;7.482;2022-10-16T06:05:53;100615.06;;;17.30;76.53
4981;BME280;2507;50.392;7.482;2022-10-16T06:08:21;100626.50;;;17.13;77.46
4981;BME280;2507;50.392;7.482;2022-10-16T06:10:47;100624.84;;;17.12;77.45
4981;BME280;2507;50.392;7.482;2022-10-16T06:13:13;100619.06;;;17.16;77.68
4981;BME280;2507;50.392;7.482;2022-10-16T06:15:40;100609.31;;;17.34;76.83
4981;BME280;2507;50.392;7.482;2022-10-16T06:18:07;100615.06;;;17.30;77.36
4981;BME280;2507;50.392;7.482;2022-10-16T06:20:33;100608.66;;;17.32;77.35
4981;BME280;2507;50.392;7.482;2022-10-16T06:22:58;100612.28;;;17.31;77.84
4981;BME280;2507;50.392;7.482;2022-10-16T06:25:24;100603.47;;;17.31;77.63
4981;BME280;2507;50.392;7.482;2022-10-16T06:27:49;100621.66;;;17.26;77.78
4981;BME280;2507;50.392;7.482;2022-10-16T06:30:14;100632.75;;;17.21;77.68
4981;BME280;2507;50.392;7.482;2022-10-16T06:32:39;100632.84;;;17.02;79.39
4981;BME280;2507;50.392;7.482;2022-10-16T06:35:05;100642.06;;;16.98;80.11
4981;BME280;2507;50.392;7.482;2022-10-16T06:37:30;100638.41;;;17.09;80.13
4981;BME280;2507;50.392;7.482;2022-10-16T06:39:55;100635.88;;;17.07;80.46
4981;BME280;2507;50.392;7.482;2022-10-16T06:42:21;100655.63;;;17.22;80.31
4981;BME280;2507;50.392;7.482;2022-10-16T06:44:46;100666.38;;;17.21;80.50
4981;BME280;2507;50.392;7.482;2022-10-16T06:47:11;100672.59;;;17.29;79.22
4981;BME280;2507;50.392;7.482;2022-10-16T06:49:36;100675.16;;;17.49;79.03
4981;BME280;2507;50.392;7.482;2022-10-16T06:52:02;100677.31;;;17.35;78.47
4981;BME280;2507;50.392;7.482;2022-10-16T06:54:28;100672.06;;;17.26;79.67
4981;BME280;2507;50.392;7.482;2022-10-16T06:56:53;100680.34;;;17.41;79.42
4981;BME280;2507;50.392;7.482;2022-10-16T06:59:22;100682.66;;;17.53;79.16
4981;BME280;2507;50.392;7.482;2022-10-16T07:01:48;100696.38;;;17.49;78.60
4981;BME280;2507;50.392;7.482;2022-10-16T07:04:13;100690.41;;;17.19;80.24
4981;BME280;2507;50.392;7.482;2022-10-16T07:06:38;100699.44;;;17.26;80.67
4981;BME280;2507;50.392;7.482;2022-10-16T07:09:06;100690.44;;;17.37;80.03
4981;BME280;2507;50.392;7.482;2022-10-16T07:11:32;100683.94;;;17.49;79.72
4981;BME280;2507;50.392;7.482;2022-10-16T07:13:58;100691.69;;;17.60;78.99
4981;BME280;2507;50.392;7.482;2022-10-16T07:16:26;100700.41;;;17.70;78.55
4981;BME280;2507;50.392;7.482;2022-10-16T07:18:56;100713.63;;;17.80;78.66
4981;BME280;2507;50.392;7.482;2022-10-16T07:21:27;100716.81;;;17.83;77.73
4981;BME280;2507;50.392;7.482;2022-10-16T07:23:55;100705.88;;;17.69;78.50
4981;BME280;2507;50.392;7.482;2022-10-16T07:26:22;100705.88;;;17.69;78.26
4981;BME280;2507;50.392;7.482;2022-10-16T07:28:47;100718.31;;;17.68;78.35
4981;BME280;2507;50.392;7.482;2022-10-16T07:31:16;100712.78;;;17.79;77.98
4981;BME280;2507;50.392;7.482;2022-10-16T07:33:42;100727.41;;;18.01;76.76
4981;BME280;2507;50.392;7.482;2022-10-16T07:36:10;100728.53;;;17.98;76.75
4981;BME280;2507;50.392;7.482;2022-10-16T07:38:35;100723.88;;;17.92;77.08
4981;BME280;2507;50.392;7.482;2022-10-16T07:41:06;100717.34;;;17.87;77.14
4981;BME280;2507;50.392;7.482;2022-10-16T07:43:33;100720.00;;;17.87;77.79
4981;BME280;2507;50.392;7.482;2022-10-16T07:45:58;100727.84;;;17.96;76.77
4981;BME280;2507;50.392;7.482;2022-10-16T07:48:29;100744.56;;;18.06;76.67
4981;BME280;2507;50.392;7.482;2022-10-16T07:51:03;100767.03;;;18.12;76.32
4981;BME280;2507;50.392;7.482;2022-10-16T07:53:29;100771.56;;;18.19;75.68
4981;BME280;2507;50.392;7.482;2022-10-16T07:56:02;100765.81;;;18.06;76.85
4981;BME280;2507;50.392;7.482;2022-10-16T07:58:28;100766.84;;;18.31;74.69
4981;BME280;2507;50.392;7.482;2022-10-16T08:00:54;100772.22;;;18.39;74.81
4981;BME280;2507;50.392;7.482;2022-10-16T08:03:20;100776.25;;;18.61;74.74
4981;BME280;2507;50.392;7.482;2022-10-16T08:05:45;100779.06;;;18.85;73.67
4981;BME280;2507;50.392;7.482;2022-10-16T08:08:13;100789.97;;;19.07;73.51
4981;BME280;2507;50.392;7.482;2022-10-16T08:10:39;100786.19;;;19.10;72.90
4981;BME280;2507;50.392;7.482;2022-10-16T08:13:04;100786.75;;;19.21;72.15
4981;BME280;2507;50.392;7.482;2022-10-16T08:15:30;100787.53;;;19.40;71.33
4981;BME280;2507;50.392;7.482;2022-10-16T08:17:57;100783.44;;;19.69;70.03
4981;BME280;2507;50.392;7.482;2022-10-16T08:20:22;100798.50;;;19.94;69.90
4981;BME280;2507;50.392;7.482;2022-10-16T08:22:48;100804.25;;;20.23;68.77
4981;BME280;2507;50.392;7.482;2022-10-16T08:25:13;100799.81;;;19.98;69.11
4981;BME280;2507;50.392;7.482;2022-10-16T08:27:38;100836.47;;;20.04;68.31
4981;BME280;2507;50.392;7.482;2022-10-16T08:30:04;100823.81;;;19.90;68.92
4981;BME280;2507;50.392;7.482;2022-10-16T08:32:29;100820.66;;;20.11;68.20
4981;BME280;2507;50.392;7.482;2022-10-16T08:34:55;100821.03;;;20.24;66.90
4981;BME280;2507;50.392;7.482;2022-10-16T08:37:20;100822.19;;;20.05;67.43
4981;BME280;2507;50.392;7.482;2022-10-16T08:39:45;100829.00;;;20.00;67.67
4981;BME280;2507;50.392;7.482;2022-10-16T08:42:22;100832.31;;;20.02;67.93
4981;BME280;2507;50.392;7.482;2022-10-16T08:47:53;100839.66;;;20.00;68.10
4981;BME280;2507;50.392;7.482;2022-10-16T08:50:26;100841.91;;;19.79;68.93
4981;BME280;2507;50.392;7.482;2022-10-16T08:52:54;100844.97;;;20.00;68.39
4981;BME280;2507;50.392;7.482;2022-10-16T08:55:30;100837.38;;;20.21;67.38
4981;BME280;2507;50.392;7.482;2022-10-16T08:57:57;100847.41;;;20.27;66.74
4981;BME280;2507;50.392;7.482;2022-10-16T09:00:22;100852.47;;;20.04;67.85
4981;BME280;2507;50.392;7.482;2022-10-16T09:02:57;100859.72;;;20.44;67.05
4981;BME280;2507;50.392;7.482;2022-10-16T09:05:52;100867.06;;;20.90;65.55
4981;BME280;2507;50.392;7.482;2022-10-16T09:08:29;100858.03;;;21.07;65.91
4981;BME280;2507;50.392;7.482;2022-10-16T09:10:58;100858.66;;;21.33;65.25
4981;BME280;2507;50.392;7.482;2022-10-16T09:13:37;100863.41;;;21.62;63.83
4981;BME280;2507;50.392;7.482;2022-10-16T09:16:33;100856.22;;;21.63;62.68
4981;BME280;2507;50.392;7.482;2022-10-16T09:19:09;100865.47;;;21.44;63.49
4981;BME280;2507;50.392;7.482;2022-10-16T09:21:41;100873.31;;;21.46;64.36
4981;BME280;2507;50.392;7.482;2022-10-16T09:24:26;100877.91;;;21.68;63.80
4981;BME280;2507;50.392;7.482;2022-10-16T09:26:51;100875.13;;;21.53;63.16
4981;BME280;2507;50.392;7.482;2022-10-16T09:29:19;100882.25;;;21.69;63.11
4981;BME280;2507;50.392;7.482;2022-10-16T09:31:46;100873.03;;;21.33;63.83
4981;BME280;2507;50.392;7.482;2022-10-16T09:34:32;100873.72;;;21.26;64.37
4981;BME280;2507;50.392;7.482;2022-10-16T09:37:00;100865.22;;;21.23;63.96
4981;BME280;2507;50.392;7.482;2022-10-16T09:39:28;100869.41;;;21.17;63.71
4981;BME280;2507;50.392;7.482;2022-10-16T09:41:54;100870.38;;;21.33;62.94
4981;BME280;2507;50.392;7.482;2022-10-16T09:44:24;100875.03;;;21.30;63.18
4981;BME280;2507;50.392;7.482;2022-10-16T09:47:05;100871.63;;;21.53;62.49
4981;BME280;2507;50.392;7.482;2022-10-16T09:49:31;100879.34;;;21.78;61.67
4981;BME280;2507;50.392;7.482;2022-10-16T09:52:11;100880.81;;;21.97;60.63
4981;BME280;2507;50.392;7.482;2022-10-16T09:54:37;100877.47;;;22.48;60.21
4981;BME280;2507;50.392;7.482;2022-10-16T09:57:13;100878.84;;;22.89;58.24
4981;BME280;2507;50.392;7.482;2022-10-16T09:59:46;100868.59;;;22.93;58.48
4981;BME280;2507;50.392;7.482;2022-10-16T10:02:14;100867.00;;;22.84;58.47
4981;BME280;2507;50.392;7.482;2022-10-16T10:04:51;100873.06;;;22.63;59.43
4981;BME280;2507;50.392;7.482;2022-10-16T10:07:33;100867.47;;;22.42;59.42
4981;BME280;2507;50.392;7.482;2022-10-16T10:10:03;100872.88;;;22.11;59.39
4981;BME280;2507;50.392;7.482;2022-10-16T10:12:33;100866.66;;;22.19;59.15
4981;BME280;2507;50.392;7.482;2022-10-16T10:15:06;100864.94;;;22.26;59.38
4981;BME280;2507;50.392;7.482;2022-10-16T10:17:32;100870.16;;;22.19;59.88
4981;BME280;2507;50.392;7.482;2022-10-16T10:20:15;100868.00;;;22.15;58.70
4981;BME280;2507;50.392;7.482;2022-10-16T10:22:46;100870.53;;;22.39;58.60
4981;BME280;2507;50.392;7.482;2022-10-16T10:33:18;100864.75;;;22.05;60.31
4981;BME280;2507;50.392;7.482;2022-10-16T10:39:15;100853.97;;;22.66;58.44
4981;BME280;2507;50.392;7.482;2022-10-16T10:41:57;100854.47;;;22.84;58.02
4981;BME280;2507;50.392;7.482;2022-10-16T10:47:31;100850.84;;;22.55;57.78
4981;BME280;2507;50.392;7.482;2022-10-16T10:56:02;100847.75;;;22.88;57.40
4981;BME280;2507;50.392;7.482;2022-10-16T10:58:37;100842.84;;;22.92;57.71
4981;BME280;2507;50.392;7.482;2022-10-16T11:01:17;100852.72;;;22.91;57.49
4981;BME280;2507;50.392;7.482;2022-10-16T11:06:48;100857.25;;;22.91;56.54
4981;BME280;2507;50.392;7.482;2022-10-16T11:09:18;100849.84;;;22.93;56.34
4981;BME280;2507;50.392;7.482;2022-10-16T11:12:00;100847.81;;;22.80;56.65
4981;BME280;2507;50.392;7.482;2022-10-16T11:14:35;100851.28;;;23.03;56.67
4981;BME280;2507;50.392;7.482;2022-10-16T11:17:08;100866.22;;;22.98;56.50
4981;BME280;2507;50.392;7.482;2022-10-16T11:19:46;100855.16;;;23.15;55.63
4981;BME280;2507;50.392;7.482;2022-10-16T11:22:50;100853.84;;;22.97;55.75
4981;BME280;2507;50.392;7.482;2022-10-16T11:25:28;100853.34;;;22.79;55.97
4981;BME280;2507;50.392;7.482;2022-10-16T11:30:28;100856.50;;;22.97;56.13
4981;BME280;2507;50.392;7.482;2022-10-16T11:35:41;100853.19;;;22.95;56.86
4981;BME280;2507;50.392;7.482;2022-10-16T11:41:02;100858.91;;;23.44;55.58
4981;BME280;2507;50.392;7.482;2022-10-16T11:43:35;100857.25;;;23.93;53.84
4981;BME280;2507;50.392;7.482;2022-10-16T11:46:10;100876.44;;;23.61;54.27
4981;BME280;2507;50.392;7.482;2022-10-16T11:48:54;100866.59;;;23.09;55.85
4981;BME280;2507;50.392;7.482;2022-10-16T11:51:34;100864.28;;;23.06;56.17
4981;BME280;2507;50.392;7.482;2022-10-16T11:54:16;100863.28;;;23.22;55.45
4981;BME280;2507;50.392;7.482;2022-10-16T11:56:48;100859.41;;;23.24;55.69
4981;BME280;2507;50.392;7.482;2022-10-16T11:59:30;100859.97;;;23.64;54.29
4981;BME280;2507;50.392;7.482;2022-10-16T12:02:31;100857.00;;;23.88;53.68
4981;BME280;2507;50.392;7.482;2022-10-16T12:05:05;100860.81;;;23.79;53.98
4981;BME280;2507;50.392;7.482;2022-10-16T12:07:40;100859.19;;;23.49;55.24
4981;BME280;2507;50.392;7.482;2022-10-16T12:10:28;100855.59;;;23.92;54.59
4981;BME280;2507;50.392;7.482;2022-10-16T12:12:54;100859.63;;;24.17;53.48
4981;BME280;2507;50.392;7.482;2022-10-16T12:15:32;100859.13;;;24.49;52.46
4981;BME280;2507;50.392;7.482;2022-10-16T12:17:58;100850.09;;;24.29;53.19
4981;BME280;2507;50.392;7.482;2022-10-16T12:20:33;100855.56;;;24.42;52.40
4981;BME280;2507;50.392;7.482;2022-10-16T12:23:03;100855.81;;;24.68;51.66
4981;BME280;2507;50.392;7.482;2022-10-16T12:25:31;100858.84;;;24.80;51.98
4981;BME280;2507;50.392;7.482;2022-10-16T12:30:27;100853.41;;;24.52;52.29
4981;BME280;2507;50.392;7.482;2022-10-16T12:33:01;100854.91;;;24.61;52.21
4981;BME280;2507;50.392;7.482;2022-10-16T12:35:33;100841.69;;;24.39;52.39
4981;BME280;2507;50.392;7.482;2022-10-16T12:40:44;100865.31;;;23.93;53.95
4981;BME280;2507;50.392;7.482;2022-10-16T12:43:26;100864.22;;;23.73;54.19
4981;BME280;2507;50.392;7.482;2022-10-16T12:46:03;100864.16;;;23.37;55.28
4981;BME280;2507;50.392;7.482;2022-10-16T12:48:29;100861.09;;;23.40;55.27
4981;BME280;2507;50.392;7.482;2022-10-16T12:50:55;100864.91;;;23.46;55.67
4981;BME280;2507;50.392;7.482;2022-10-16T12:53:23;100870.19;;;23.39;55.90
4981;BME280;2507;50.392;7.482;2022-10-16T12:56:03;100874.34;;;23.42;56.03
4981;BME280;2507;50.392;7.482;2022-10-16T13:01:17;100876.38;;;23.54;55.91
4981;BME280;2507;50.392;7.482;2022-10-16T13:14:55;100869.78;;;23.57;56.66
4981;BME280;2507;50.392;7.482;2022-10-16T13:20:24;100877.38;;;23.68;56.17
4981;BME280;2507;50.392;7.482;2022-10-16T13:23:13;100880.66;;;23.84;55.45
4981;BME280;2507;50.392;7.482;2022-10-16T13:25:49;100880.47;;;23.86;55.24
4981;BME280;2507;50.392;7.482;2022-10-16T13:28:22;100881.34;;;23.72;55.71
4981;BME280;2507;50.392;7.482;2022-10-16T13:30:53;100869.44;;;23.60;55.84
4981;BME280;2507;50.392;7.482;2022-10-16T13:33:40;100864.34;;;23.36;56.21
4981;BME280;2507;50.392;7.482;2022-10-16T13:36:06;100868.47;;;23.23;56.95
4981;BME280;2507;50.392;7.482;2022-10-16T13:38:33;100861.88;;;23.34;56.76
4981;BME280;2507;50.392;7.482;2022-10-16T13:41:05;100855.66;;;23.34;56.77
4981;BME280;2507;50.392;7.482;2022-10-16T13:43:45;100852.53;;;23.30;56.55
4981;BME280;2507;50.392;7.482;2022-10-16T13:46:16;100865.34;;;23.20;56.76
4981;BME280;2507;50.392;7.482;2022-10-16T13:48:43;100859.97;;;23.05;57.69
4981;BME280;2507;50.392;7.482;2022-10-16T13:51:17;100866.91;;;23.14;57.64
4981;BME280;2507;50.392;7.482;2022-10-16T13:53:43;100874.31;;;23.27;57.25
4981;BME280;2507;50.392;7.482;2022-10-16T13:56:15;100872.94;;;23.46;56.29
4981;BME280;2507;50.392;7.482;2022-10-16T13:58:41;100866.81;;;23.81;55.77
4981;BME280;2507;50.392;7.482;2022-10-16T14:01:18;100866.53;;;23.90;55.46
4981;BME280;2507;50.392;7.482;2022-10-16T14:03:46;100861.22;;;23.97;54.74
4981;BME280;2507;50.392;7.482;2022-10-16T14:06:16;100860.34;;;23.75;54.67
4981;BME280;2507;50.392;7.482;2022-10-16T14:08:45;100860.28;;;23.69;55.31
4981;BME280;2507;50.392;7.482;2022-10-16T14:11:20;100864.53;;;23.49;55.82
4981;BME280;2507;50.392;7.482;2022-10-16T14:13:47;100855.47;;;23.50;56.03
4981;BME280;2507;50.392;7.482;2022-10-16T14:16:19;100859.19;;;23.49;55.94
4981;BME280;2507;50.392;7.482;2022-10-16T14:18:55;100858.91;;;23.44;56.34
4981;BME280;2507;50.392;7.482;2022-10-16T14:21:21;100863.91;;;23.47;56.40
4981;BME280;2507;50.392;7.482;2022-10-16T14:23:46;100858.81;;;23.37;56.86
4981;BME280;2507;50.392;7.482;2022-10-16T14:26:15;100870.84;;;23.18;56.77
4981;BME280;2507;50.392;7.482;2022-10-16T14:28:41;100862.28;;;23.23;57.22
4981;BME280;2507;50.392;7.482;2022-10-16T14:33:44;100864.09;;;23.31;57.37
4981;BME280;2507;50.392;7.482;2022-10-16T14:36:13;100870.41;;;23.15;57.22